createdAt,value
2022-12-09T00:00:55.595Z,99909.88
2022-12-09T00:11:00.177Z,99900.59
2022-12-09T00:21:12.580Z,99892.88
2022-12-09T00:31:20.239Z,99890.44
2022-12-09T00:41:23.562Z,99897.31
2022-12-09T00:51:29.588Z,99893.94
2022-12-09T01:01:32.918Z,99887.97
2022-12-09T01:11:37.680Z,99889.75
2022-12-09T01:21:42.700Z,99881.13
2022-12-09T01:31:48.190Z,99880.34
2022-12-09T01:41:52.131Z,99881.09
2022-12-09T01:52:03.922Z,99874.28
2022-12-09T02:02:10.850Z,99865.84
2022-12-09T02:12:18.246Z,99870.06
2022-12-09T02:22:25.780Z,99857.38
2022-12-09T02:32:46.163Z,99853.06
2022-12-09T02:42:52.825Z,99844.72
2022-12-09T02:53:00.223Z,99842.94
2022-12-09T03:03:09.675Z,99830.19
2022-12-09T03:13:16.974Z,99831.81
2022-12-09T03:23:26.278Z,99830.19
2022-12-09T03:33:31.417Z,99821.66
2022-12-09T03:43:39.424Z,99814.16
2022-12-09T03:53:46.764Z,99808.06
2022-12-09T04:03:54.371Z,99797.97
2022-12-09T04:13:57.774Z,99800.47
2022-12-09T04:24:03.229Z,99799.53
2022-12-09T04:34:09.615Z,99798.69
2022-12-09T04:44:14.712Z,99799.63
2022-12-09T04:54:18.062Z,99791.97
2022-12-09T05:04:22.613Z,99782.75
2022-12-09T05:14:25.940Z,99779.13
2022-12-09T05:24:32.845Z,99776.66
2022-12-09T05:34:36.107Z,99770.88
2022-12-09T05:44:41.131Z,99758.16
2022-12-09T05:54:44.573Z,99760.78
2022-12-09T06:04:49.075Z,99748.97
2022-12-09T06:14:52.731Z,99743.09
2022-12-09T06:24:57.702Z,99750.88
2022-12-09T06:35:01.418Z,99755.06
2022-12-09T06:56:55.656Z,99762.78
2022-12-09T07:06:59.110Z,99762.75
2022-12-09T07:17:05.017Z,99763.66
2022-12-09T07:27:17.208Z,99768.00
2022-12-09T07:37:23.977Z,99777.41
2022-12-09T07:47:27.195Z,99790.13
2022-12-09T07:57:31.754Z,99787.56
2022-12-09T08:07:38.861Z,99784.13
2022-12-09T08:17:48.676Z,99776.31
2022-12-09T08:27:52.076Z,99779.81
2022-12-09T08:37:56.505Z,99784.13
2022-12-09T08:47:59.670Z,99785.81
2022-12-09T08:58:04.399Z,99784.81
2022-12-09T09:08:07.596Z,99782.38
2022-12-09T09:18:12.858Z,99783.97
2022-12-09T09:28:16.223Z,99787.22
2022-12-09T09:38:21.228Z,99794.91
2022-12-09T09:48:29.685Z,99786.25
2022-12-09T09:58:40.623Z,99788.91
2022-12-09T10:08:56.337Z,99787.09
2022-12-09T10:19:09.269Z,99772.59
2022-12-09T10:29:18.725Z,99762.34
2022-12-09T10:39:23.518Z,99756.38
2022-12-09T10:49:27.190Z,99755.44
2022-12-09T10:59:32.806Z,99748.66
2022-12-09T11:09:38.672Z,99742.66
2022-12-09T11:19:47.962Z,99732.47
2022-12-09T11:30:12.735Z,99728.84
2022-12-09T11:40:20.391Z,99719.09
2022-12-09T11:50:31.196Z,99709.97
2022-12-09T12:00:43.177Z,99705.97
2022-12-09T12:10:51.151Z,99706.19
2022-12-09T12:21:10.746Z,99701.59
2022-12-09T12:31:27.471Z,99695.53
2022-12-09T12:41:39.133Z,99689.41
2022-12-09T12:51:54.592Z,99685.78
2022-12-09T13:02:10.462Z,99677.91
2022-12-09T13:12:18.126Z,99668.84
2022-12-09T13:22:25.580Z,99663.28
2022-12-09T13:32:59.207Z,99666.28
2022-12-09T13:43:11.829Z,99673.00
2022-12-09T13:53:27.341Z,99671.66
2022-12-09T14:03:35.246Z,99682.84
2022-12-09T14:13:38.366Z,99687.91
2022-12-09T14:24:21.231Z,99701.53
2022-12-09T14:34:37.959Z,99709.69
2022-12-09T14:44:50.409Z,99704.25
2022-12-09T14:54:57.754Z,99704.25
2022-12-09T15:05:03.651Z,99712.03
2022-12-09T15:15:13.321Z,99727.59
2022-12-09T15:25:19.238Z,99724.53
2022-12-09T15:35:25.135Z,99727.88
2022-12-09T15:45:34.781Z,99725.41
2022-12-09T15:55:43.749Z,99731.53
2022-12-09T16:05:53.844Z,99735.63
2022-12-09T16:16:01.797Z,99730.50
2022-12-09T16:26:07.824Z,99725.31
2022-12-09T16:36:19.547Z,99733.84
2022-12-09T16:46:42.719Z,99733.16
2022-12-09T16:56:46.377Z,99747.63
2022-12-09T17:06:50.915Z,99754.47
2022-12-09T17:16:54.143Z,99754.31
2022-12-09T17:26:59.438Z,99747.63
2022-12-09T17:37:02.528Z,99757.84
2022-12-09T17:47:07.077Z,99775.84
2022-12-09T17:57:10.009Z,99789.56
2022-12-09T18:07:14.423Z,99794.63
2022-12-09T18:17:17.584Z,99798.13
2022-12-09T18:27:22.101Z,99801.50
2022-12-09T18:37:26.705Z,99813.53
2022-12-09T18:59:33.811Z,99822.16
2022-12-09T19:09:38.007Z,99820.38
2022-12-09T19:19:42.417Z,99828.03
2022-12-09T19:29:45.493Z,99834.88
2022-12-09T19:39:50.696Z,99840.06
2022-12-09T19:49:53.722Z,99837.56
2022-12-09T19:59:58.273Z,99840.13
2022-12-09T20:10:01.203Z,99847.81
2022-12-09T20:20:07.390Z,99859.69
2022-12-09T20:30:11.786Z,99866.41
2022-12-09T20:40:16.302Z,99867.41
2022-12-09T20:50:19.691Z,99867.50
2022-12-09T21:00:24.109Z,99876.72
2022-12-09T21:10:27.276Z,99883.50
2022-12-09T21:20:32.019Z,99889.47
2022-12-09T21:30:35.146Z,99874.97
2022-12-09T21:40:39.517Z,99885.22
2022-12-09T21:50:42.601Z,99888.56
2022-12-09T22:00:47.462Z,99886.91
2022-12-09T22:10:51.249Z,99908.94
2022-12-09T22:21:24.041Z,99908.97
2022-12-09T22:31:22.412Z,99917.44
2022-12-09T22:41:29.931Z,99918.28
2022-12-09T22:51:35.445Z,99925.09
2022-12-09T23:01:40.107Z,99935.22
2022-12-09T23:11:43.269Z,99925.91
2022-12-09T23:21:50.299Z,99928.50
2022-12-09T23:31:53.256Z,99936.09
2022-12-09T23:41:57.690Z,99942.03
2022-12-09T23:52:00.828Z,99936.97
